Time;durP1;ratioP1;P1;durP2;ratioP2;P2;SDS_P1;SDS_P2;PMS_P1;PMS_P2;Temp;Humidity;BMP_temperature;BMP_pressure;BME280_temperature;BME280_humidity;BME280_pressure;Samples;Min_cycle;Max_cycle;Signal;HPM_P1;HPM_P2
2022/04/03 00:02:03;;;;;;;1.80;1.70;;;15.70;70.40;;;;;;4842353;29;20467;-61
2022/04/03 00:04:34;;;;;;;2.17;1.97;;;15.50;71.30;;;;;;4845103;29;20875;-62
2022/04/03 00:07:05;;;;;;;1.90;1.80;;;15.50;73.40;;;;;;4844067;29;20502;-61
2022/04/03 00:09:36;;;;;;;1.80;1.70;;;15.60;74.00;;;;;;4852533;29;20482;-61
2022/04/03 00:12:07;;;;;;;1.73;1.60;;;15.70;74.30;;;;;;4848389;29;20824;-62
2022/04/03 00:14:40;;;;;;;1.73;1.63;;;15.80;72.40;;;;;;4848704;29;20462;-62
2022/04/03 00:17:11;;;;;;;2.80;1.80;;;16.00;70.60;;;;;;4850723;29;20859;-61
2022/04/03 00:19:42;;;;;;;1.63;1.20;;;16.00;70.00;;;;;;4852812;29;20462;-61
2022/04/03 00:22:13;;;;;;;2.00;1.80;;;15.80;71.10;;;;;;4851998;29;20462;-60
2022/04/03 00:24:44;;;;;;;2.53;2.07;;;15.90;70.20;;;;;;4851977;29;20958;-61
2022/04/03 00:27:15;;;;;;;1.67;1.43;;;15.90;69.80;;;;;;4845595;29;20495;-61
2022/04/03 00:29:47;;;;;;;2.33;1.87;;;15.80;69.10;;;;;;4839370;29;20471;-61
2022/04/03 00:32:18;;;;;;;1.97;1.87;;;15.90;70.00;;;;;;4840555;29;20462;-61
2022/04/03 00:34:49;;;;;;;2.80;2.57;;;15.80;70.00;;;;;;4850325;29;20454;-61
2022/04/03 00:37:19;;;;;;;2.07;1.87;;;15.60;71.40;;;;;;4848474;29;20434;-60
2022/04/03 00:39:50;;;;;;;3.10;2.17;;;15.60;71.20;;;;;;4850214;29;20459;-60
2022/04/03 00:42:25;;;;;;;2.67;2.00;;;15.50;71.90;;;;;;4839087;29;20519;-60
2022/04/03 00:44:57;;;;;;;4.30;2.00;;;15.50;71.50;;;;;;4849200;29;20470;-60
2022/04/03 00:47:29;;;;;;;2.50;1.73;;;15.50;71.20;;;;;;4843628;29;20595;-59
2022/04/03 00:50:01;;;;;;;3.03;2.00;;;15.30;69.60;;;;;;4836933;29;20542;-60
2022/04/03 00:52:31;;;;;;;2.17;1.97;;;15.30;71.70;;;;;;4845589;29;20801;-60
2022/04/03 00:55:02;;;;;;;2.43;2.20;;;15.30;72.60;;;;;;4845542;29;20475;-60
2022/04/03 00:57:36;;;;;;;2.57;2.37;;;15.30;72.00;;;;;;4850339;29;20466;-61
2022/04/03 01:00:14;;;;;;;2.53;2.33;;;15.30;72.90;;;;;;4843792;29;20462;-60
2022/04/03 01:02:46;;;;;;;7.70;2.60;;;15.30;76.00;;;;;;4849372;29;20546;-60
2022/04/03 01:05:16;;;;;;;2.43;2.10;;;15.40;70.60;;;;;;4846154;29;20448;-61
2022/04/03 01:08:06;;;;;;;4.30;2.43;;;15.40;71.10;;;;;;4842920;29;20551;-61
2022/04/03 01:10:37;;;;;;;2.20;2.00;;;15.30;71.90;;;;;;4840716;29;20570;-62
2022/04/03 01:13:07;;;;;;;3.00;2.13;;;15.10;72.00;;;;;;4842212;29;20466;-63
2022/04/03 01:15:40;;;;;;;2.20;2.00;;;15.10;73.40;;;;;;4841515;29;20492;-66
2022/04/03 01:18:11;;;;;;;2.00;1.80;;;15.00;73.50;;;;;;4850395;29;20577;-64
2022/04/03 01:20:42;;;;;;;2.67;2.47;;;15.00;72.00;;;;;;4851391;29;20469;-63
2022/04/03 01:23:13;;;;;;;2.40;2.03;;;15.00;71.40;;;;;;4845979;29;20472;-65
2022/04/03 01:25:45;;;;;;;1.87;1.77;;;15.00;71.60;;;;;;4851694;29;20504;-65
2022/04/03 01:28:18;;;;;;;3.60;2.50;;;14.90;72.80;;;;;;4844002;29;20498;-69
2022/04/03 01:30:50;;;;;;;2.43;2.23;;;14.90;71.80;;;;;;4846748;29;20462;-66
2022/04/03 01:33:20;;;;;;;2.70;2.50;;;14.90;71.60;;;;;;4847575;29;20550;-63
2022/04/03 01:35:52;;;;;;;3.93;2.47;;;14.90;74.00;;;;;;4850362;29;20549;-67
2022/04/03 01:38:26;;;;;;;5.97;3.10;;;14.80;74.40;;;;;;4838582;29;20470;-67
2022/04/03 01:40:58;;;;;;;2.27;2.00;;;14.70;73.60;;;;;;4842941;29;20473;-66
2022/04/03 01:43:35;;;;;;;2.87;2.57;;;14.70;75.40;;;;;;4836967;29;20458;-65
2022/04/03 01:46:06;;;;;;;2.80;2.40;;;14.60;72.50;;;;;;4842985;29;20514;-64
2022/04/03 01:48:37;;;;;;;2.60;2.40;;;14.50;74.90;;;;;;4841235;29;20471;-65
2022/04/03 01:51:08;;;;;;;3.50;2.40;;;14.30;75.70;;;;;;4833472;29;20477;-64
2022/04/03 01:53:45;;;;;;;2.60;2.40;;;14.30;77.80;;;;;;4838037;29;20454;-60
2022/04/03 01:56:18;;;;;;;3.70;2.80;;;14.20;77.20;;;;;;4841821;29;20454;-60
2022/04/03 02:01:42;;;;;;;3.50;3.13;;;14.00;76.90;;;;;;4851027;29;20466;-60
2022/04/03 02:04:13;;;;;;;2.87;2.67;;;13.90;79.00;;;;;;4848425;29;20454;-61
2022/04/03 02:06:44;;;;;;;5.97;2.60;;;13.90;79.80;;;;;;4842327;29;20501;-60
2022/04/03 02:09:15;;;;;;;2.90;2.30;;;13.80;83.20;;;;;;4844682;29;20812;-61
2022/04/03 02:11:47;;;;;;;2.77;2.30;;;13.70;81.10;;;;;;4838464;29;20442;-59
2022/04/03 02:14:24;;;;;;;2.70;2.50;;;13.60;84.60;;;;;;4848485;29;20764;-60
2022/04/03 02:16:57;;;;;;;6.13;2.47;;;13.60;84.10;;;;;;4846875;29;20465;-59
2022/04/03 02:19:28;;;;;;;2.90;2.20;;;13.50;90.70;;;;;;4846980;29;20455;-60
2022/04/03 02:21:58;;;;;;;3.30;2.80;;;13.40;90.20;;;;;;4835096;29;20470;-60
2022/04/03 02:24:29;;;;;;;2.80;2.60;;;13.30;89.60;;;;;;4849532;29;20463;-60
2022/04/03 02:27:01;;;;;;;2.60;2.40;;;13.20;92.10;;;;;;4837156;29;20502;-60
2022/04/03 02:29:35;;;;;;;2.53;2.33;;;13.00;92.40;;;;;;4844881;29;20467;-60
2022/04/03 02:32:06;;;;;;;3.30;2.57;;;12.90;95.10;;;;;;4848129;29;20477;-60
2022/04/03 02:34:40;;;;;;;3.50;2.73;;;12.70;96.30;;;;;;4841422;29;20454;-60
2022/04/03 02:37:14;;;;;;;2.70;2.50;;;12.60;95.90;;;;;;4846329;29;20450;-60
2022/04/03 02:39:45;;;;;;;3.47;2.27;;;12.60;97.80;;;;;;4836234;29;20451;-61
2022/04/03 02:42:18;;;;;;;3.27;2.83;;;12.50;99.80;;;;;;4850060;29;20462;-60
2022/04/03 02:44:51;;;;;;;3.10;2.30;;;12.30;98.60;;;;;;4848809;29;20458;-60
2022/04/03 02:47:23;;;;;;;5.00;2.73;;;12.30;96.60;;;;;;4847932;29;20517;-60
2022/04/03 02:49:54;;;;;;;3.00;2.60;;;12.20;96.80;;;;;;4847066;29;20497;-60
2022/04/03 02:52:24;;;;;;;2.77;2.57;;;12.10;94.80;;;;;;4849250;29;20454;-59
2022/04/03 02:54:56;;;;;;;2.80;2.03;;;12.10;93.80;;;;;;4849604;29;20454;-59
2022/04/03 02:57:29;;;;;;;4.73;3.20;;;12.10;93.90;;;;;;4849114;29;20447;-59
2022/04/03 03:00:14;;;;;;;4.60;3.20;;;12.00;96.00;;;;;;4838983;29;20463;-63
2022/04/03 03:02:47;;;;;;;3.83;3.50;;;11.90;94.90;;;;;;4845074;29;20462;-63
2022/04/03 03:05:18;;;;;;;4.23;2.80;;;11.90;94.00;;;;;;4849936;29;20491;-63
2022/04/03 03:07:50;;;;;;;3.87;3.00;;;11.80;96.40;;;;;;4846564;29;20509;-61
2022/04/03 03:10:23;;;;;;;3.27;2.37;;;11.70;99.90;;;;;;4844558;29;20463;-61
2022/04/03 03:12:56;;;;;;;3.63;3.33;;;11.60;99.90;;;;;;4842357;29;20451;-61
2022/04/03 03:15:27;;;;;;;6.33;3.03;;;11.50;99.90;;;;;;4844115;29;20462;-61
2022/04/03 03:17:58;;;;;;;6.87;3.10;;;11.40;99.90;;;;;;4844441;29;20470;-60
2022/04/03 03:20:29;;;;;;;3.33;3.03;;;11.20;99.90;;;;;;4848454;29;20469;-61
2022/04/03 03:23:08;;;;;;;4.87;3.23;;;11.20;99.90;;;;;;4848341;29;20913;-61
2022/04/03 03:25:40;;;;;;;3.83;3.40;;;11.00;99.90;;;;;;4849051;29;20465;-61
2022/04/03 03:28:12;;;;;;;3.50;3.20;;;10.90;99.90;;;;;;4845702;29;20598;-61
2022/04/03 03:30:46;;;;;;;4.50;4.10;;;10.70;99.90;;;;;;4847469;29;20447;-60
2022/04/03 03:33:17;;;;;;;4.70;3.90;;;10.70;99.90;;;;;;4840840;29;20479;-61
2022/04/03 03:35:55;;;;;;;7.20;4.23;;;10.70;99.90;;;;;;4835481;29;20463;-62
2022/04/03 03:38:26;;;;;;;5.00;4.47;;;10.60;99.90;;;;;;4851663;29;20545;-62
2022/04/03 03:41:03;;;;;;;6.73;5.37;;;10.50;99.90;;;;;;4842932;29;20487;-61
2022/04/03 03:43:35;;;;;;;5.73;5.23;;;10.40;99.90;;;;;;4850055;29;20450;-62
2022/04/03 03:46:10;;;;;;;7.77;5.20;;;10.40;99.90;;;;;;4851024;29;20494;-62
2022/04/03 03:48:41;;;;;;;14.50;7.97;;;10.30;99.90;;;;;;4850487;29;20625;-61
2022/04/03 03:51:15;;;;;;;15.07;11.33;;;10.30;99.90;;;;;;4845074;29;20217;-62
2022/04/03 03:53:46;;;;;;;25.63;19.07;;;10.20;99.90;;;;;;4846061;29;20788;-61
2022/04/03 03:56:19;;;;;;;38.37;25.07;;;10.10;99.90;;;;;;4848383;29;20466;-62
2022/04/03 03:58:52;;;;;;;42.17;30.17;;;10.00;99.90;;;;;;4845742;29;20457;-62
2022/04/03 04:01:32;;;;;;;47.20;30.33;;;10.00;99.90;;;;;;4847764;29;20459;-61
2022/04/03 04:04:03;;;;;;;40.30;27.10;;;10.00;99.90;;;;;;4847483;29;20237;-62
2022/04/03 04:06:43;;;;;;;27.92;19.77;;;9.90;99.90;;;;;;4848631;29;20516;-61
2022/04/03 04:09:14;;;;;;;23.15;16.10;;;9.80;99.90;;;;;;4845741;29;20237;-62
2022/04/03 04:11:45;;;;;;;21.97;13.57;;;9.70;99.90;;;;;;4844540;29;20217;-62
2022/04/03 04:14:18;;;;;;;14.00;12.15;;;9.70;99.90;;;;;;4849850;29;20469;-62
2022/04/03 04:17:06;;;;;;;17.20;13.63;;;9.70;99.90;;;;;;4849511;29;20618;-62
2022/04/03 04:19:37;;;;;;;24.48;19.15;;;9.70;99.90;;;;;;4846015;29;20232;-62
2022/04/03 04:22:08;;;;;;;27.90;21.05;;;9.60;99.90;;;;;;4843949;29;20237;-62
2022/04/03 04:24:39;;;;;;;17.15;13.15;;;9.50;99.90;;;;;;4845673;29;20218;-62
2022/04/03 04:27:10;;;;;;;13.77;11.07;;;9.40;99.90;;;;;;4844667;29;20299;-62
2022/04/03 04:29:42;;;;;;;11.43;9.93;;;9.40;99.90;;;;;;4847992;29;20217;-62
2022/04/03 04:32:14;;;;;;;12.73;9.48;;;9.30;99.90;;;;;;4849835;29;20457;-63
2022/04/03 04:34:44;;;;;;;10.32;8.32;;;9.30;99.90;;;;;;4845690;29;20202;-62
2022/04/03 04:37:18;;;;;;;9.00;8.10;;;9.20;99.90;;;;;;4849729;29;20291;-61
2022/04/03 04:39:49;;;;;;;8.35;7.63;;;9.20;99.90;;;;;;4847315;29;20216;-62
2022/04/03 04:42:30;;;;;;;15.68;13.98;;;9.10;99.90;;;;;;4842364;29;20881;-62
2022/04/03 04:45:02;;;;;;;13.57;11.75;;;9.00;99.90;;;;;;4837898;29;20231;-62
2022/04/03 04:47:36;;;;;;;14.38;12.30;;;9.00;99.90;;;;;;4849354;29;20601;-62
2022/04/03 04:50:11;;;;;;;11.88;10.57;;;8.90;99.90;;;;;;4840238;29;20202;-62
2022/04/03 04:52:42;;;;;;;13.07;9.73;;;8.90;99.90;;;;;;4841745;29;20225;-62
2022/04/03 04:55:13;;;;;;;12.00;10.80;;;8.80;99.90;;;;;;4843771;29;20245;-61
2022/04/03 04:57:51;;;;;;;14.30;10.75;;;8.70;99.90;;;;;;4847800;29;20219;-62
2022/04/03 05:00:25;;;;;;;12.68;11.30;;;8.70;99.90;;;;;;4844933;29;20221;-62
2022/04/03 05:02:57;;;;;;;14.55;12.30;;;8.70;99.90;;;;;;4835791;29;20201;-62
2022/04/03 05:05:29;;;;;;;19.85;13.32;;;8.60;99.90;;;;;;4838922;29;20668;-62
2022/04/03 05:08:01;;;;;;;14.05;11.70;;;8.70;99.90;;;;;;4851178;29;20225;-61
2022/04/03 05:10:33;;;;;;;11.02;9.35;;;8.70;99.90;;;;;;4839465;29;20201;-61
2022/04/03 05:13:04;;;;;;;10.77;9.45;;;8.60;99.90;;;;;;4838179;29;20213;-62
2022/04/03 05:15:37;;;;;;;11.43;9.25;;;8.50;99.90;;;;;;4845758;29;20219;-62
2022/04/03 05:18:10;;;;;;;10.07;8.77;;;8.40;99.90;;;;;;4838075;29;20205;-62
2022/04/03 05:20:40;;;;;;;12.98;9.70;;;8.40;99.90;;;;;;4847862;29;20211;-61
2022/04/03 05:23:11;;;;;;;14.85;9.27;;;8.40;99.90;;;;;;4840580;29;20608;-61
2022/04/03 05:25:42;;;;;;;11.07;9.90;;;8.30;99.90;;;;;;4847581;29;20220;-61
2022/04/03 05:28:13;;;;;;;11.68;10.30;;;8.20;99.90;;;;;;4844008;29;20240;-61
2022/04/03 05:30:46;;;;;;;15.23;11.55;;;8.10;99.90;;;;;;4842228;29;20209;-61
2022/04/03 05:33:19;;;;;;;14.88;12.43;;;8.10;99.90;;;;;;4833018;29;20206;-62
2022/04/03 05:35:50;;;;;;;14.18;12.35;;;8.10;99.90;;;;;;4850790;29;20219;-61
2022/04/03 05:38:21;;;;;;;15.43;12.20;;;8.10;99.90;;;;;;4849453;29;20253;-61
2022/04/03 05:40:52;;;;;;;14.50;13.00;;;8.20;99.90;;;;;;4840749;29;20216;-61
2022/04/03 05:43:22;;;;;;;14.98;13.23;;;8.10;99.90;;;;;;4835725;29;20231;-61
2022/04/03 05:45:55;;;;;;;14.30;11.75;;;8.10;99.90;;;;;;4841091;29;20228;-61
2022/04/03 05:48:26;;;;;;;14.98;11.43;;;8.10;99.90;;;;;;4850491;29;20296;-61
2022/04/03 05:50:56;;;;;;;14.27;11.95;;;8.00;99.90;;;;;;4837266;29;20209;-61
2022/04/03 05:53:30;;;;;;;12.52;11.07;;;8.00;99.90;;;;;;4849680;29;20205;-61
2022/04/03 05:56:01;;;;;;;13.77;12.30;;;7.90;99.90;;;;;;4840300;29;20222;-61
2022/04/03 05:58:32;;;;;;;14.65;12.10;;;7.80;99.90;;;;;;4835564;29;20209;-61
2022/04/03 06:01:06;;;;;;;13.55;12.20;;;7.80;99.90;;;;;;4834878;29;20222;-61
2022/04/03 06:03:38;;;;;;;14.52;13.02;;;7.80;99.90;;;;;;4840555;29;20220;-60
2022/04/03 06:06:08;;;;;;;16.48;12.98;;;7.80;99.90;;;;;;4850630;29;20241;-61
2022/04/03 06:08:39;;;;;;;13.90;12.70;;;7.80;99.90;;;;;;4835939;29;20675;-62
2022/04/03 06:11:10;;;;;;;14.70;12.70;;;7.80;99.90;;;;;;4843713;29;20205;-61
2022/04/03 06:13:42;;;;;;;14.60;13.18;;;7.70;99.90;;;;;;4844407;29;20232;-61
2022/04/03 06:16:15;;;;;;;13.95;12.52;;;7.60;99.90;;;;;;4839250;29;20218;-62
2022/04/03 06:18:46;;;;;;;12.75;11.50;;;7.50;99.90;;;;;;4845095;29;20205;-61
2022/04/03 06:21:17;;;;;;;13.32;12.02;;;7.50;99.90;;;;;;4849808;29;20198;-61
2022/04/03 06:23:48;;;;;;;13.57;12.30;;;7.50;99.90;;;;;;4850565;29;20216;-61
2022/04/03 06:26:19;;;;;;;13.65;12.30;;;7.50;99.90;;;;;;4844028;29;20206;-61
2022/04/03 06:28:49;;;;;;;11.90;10.70;;;7.30;99.90;;;;;;4848516;29;20233;-61
2022/04/03 06:31:22;;;;;;;14.30;12.40;;;7.40;99.90;;;;;;4833171;29;20214;-61
2022/04/03 06:33:52;;;;;;;14.20;12.57;;;7.40;99.90;;;;;;4836181;29;20198;-61
2022/04/03 06:36:23;;;;;;;14.73;11.65;;;7.40;99.90;;;;;;4835993;29;20193;-61
2022/04/03 06:38:54;;;;;;;13.60;12.15;;;7.40;99.90;;;;;;4845847;29;20211;-61
2022/04/03 06:41:25;;;;;;;12.75;11.45;;;7.20;99.90;;;;;;4847350;29;20202;-63
2022/04/03 06:43:56;;;;;;;12.88;11.65;;;7.20;99.90;;;;;;4840906;29;20216;-62
2022/04/03 06:46:28;;;;;;;13.10;11.60;;;7.10;99.90;;;;;;4847165;29;20697;-61
2022/04/03 06:48:59;;;;;;;16.63;12.60;;;7.20;99.90;;;;;;4853537;29;20237;-62
2022/04/03 06:51:30;;;;;;;17.20;12.13;;;7.30;99.90;;;;;;4845985;29;20355;-62
2022/04/03 06:54:01;;;;;;;13.07;11.77;;;7.30;99.90;;;;;;4850213;29;20246;-61
2022/04/03 06:56:32;;;;;;;12.23;10.95;;;7.20;99.90;;;;;;4841273;29;20213;-61
2022/04/03 06:59:03;;;;;;;13.98;11.70;;;7.20;99.90;;;;;;4848206;29;20256;-61
2022/04/03 07:01:36;;;;;;;16.80;12.73;;;7.20;99.90;;;;;;4850115;29;20288;-61
2022/04/03 07:04:07;;;;;;;11.52;10.60;;;7.10;99.90;;;;;;4848417;29;20430;-60
2022/04/03 07:06:38;;;;;;;13.43;11.00;;;7.10;99.90;;;;;;4853100;29;20229;-61
2022/04/03 07:09:09;;;;;;;12.50;11.30;;;7.10;99.90;;;;;;4849462;29;20336;-60
2022/04/03 07:11:40;;;;;;;12.07;10.88;;;7.10;99.90;;;;;;4849294;29;20209;-60
2022/04/03 07:14:11;;;;;;;13.00;11.70;;;7.10;99.90;;;;;;4853631;29;20222;-60
2022/04/03 07:16:43;;;;;;;12.52;11.40;;;7.10;99.90;;;;;;4852488;29;20273;-61
2022/04/03 07:19:14;;;;;;;13.38;11.93;;;7.10;99.90;;;;;;4849968;29;20202;-61
2022/04/03 07:21:44;;;;;;;13.43;11.95;;;7.20;99.90;;;;;;4850520;29;20210;-61
2022/04/03 07:24:15;;;;;;;13.32;12.02;;;7.20;99.90;;;;;;4845354;29;20217;-60
2022/04/03 07:26:46;;;;;;;13.68;12.38;;;7.20;99.90;;;;;;4841095;29;20263;-61
2022/04/03 07:29:17;;;;;;;13.75;12.45;;;7.30;99.90;;;;;;4851557;29;20692;-61
2022/04/03 07:31:49;;;;;;;13.45;12.07;;;7.40;99.90;;;;;;4842855;29;20518;-61
2022/04/03 07:34:24;;;;;;;12.20;11.00;;;7.30;99.90;;;;;;4845749;29;20308;-61
2022/04/03 07:36:56;;;;;;;12.32;11.00;;;7.40;99.90;;;;;;4848187;29;20232;-61
2022/04/03 07:39:30;;;;;;;33.90;11.55;;;7.40;99.90;;;;;;4850501;29;20217;-61
2022/04/03 07:42:02;;;;;;;11.52;10.43;;;7.50;99.90;;;;;;4845751;29;20750;-61
2022/04/03 07:44:42;;;;;;;13.55;12.15;;;7.50;99.90;;;;;;4843290;29;20217;-61
2022/04/03 07:47:15;;;;;;;11.35;10.35;;;7.60;99.90;;;;;;4852057;29;20205;-61
2022/04/03 07:49:46;;;;;;;12.35;10.60;;;7.70;99.90;;;;;;4848945;29;20307;-61
2022/04/03 07:52:17;;;;;;;11.15;10.00;;;7.60;99.90;;;;;;4844548;29;20655;-61
2022/04/03 07:54:48;;;;;;;11.35;10.05;;;7.60;99.90;;;;;;4839023;29;20225;-61
2022/04/03 07:57:20;;;;;;;12.85;11.02;;;7.50;99.90;;;;;;4837292;29;20210;-61
2022/04/03 07:59:51;;;;;;;13.07;11.10;;;7.60;99.90;;;;;;4846821;29;20221;-61
2022/04/03 08:02:24;;;;;;;11.57;10.30;;;7.60;99.90;;;;;;4849312;29;20289;-61
2022/04/03 08:04:54;;;;;;;13.65;9.70;;;7.60;99.90;;;;;;4843297;29;20208;-61
2022/04/03 08:07:36;;;;;;;13.30;12.05;;;7.50;99.90;;;;;;4848817;29;20237;-61
2022/04/03 08:10:09;;;;;;;10.95;9.95;;;7.50;99.90;;;;;;4845380;29;20240;-61
2022/04/03 08:12:40;;;;;;;11.95;10.95;;;7.50;99.90;;;;;;4843887;29;20229;-62
2022/04/03 08:15:14;;;;;;;11.10;10.10;;;7.50;99.90;;;;;;4849332;29;20209;-61
2022/04/03 08:17:46;;;;;;;11.43;10.43;;;7.50;99.90;;;;;;4851886;29;20210;-61
2022/04/03 08:20:19;;;;;;;12.32;10.23;;;7.50;99.90;;;;;;4839171;29;20206;-61
2022/04/03 08:22:51;;;;;;;10.20;9.20;;;7.50;99.90;;;;;;4848200;29;20308;-61
2022/04/03 08:25:22;;;;;;;11.98;10.05;;;7.50;99.90;;;;;;4837105;29;20210;-61
2022/04/03 08:27:54;;;;;;;12.00;10.10;;;7.50;99.90;;;;;;4849951;29;20221;-61
2022/04/03 08:30:29;;;;;;;10.43;9.38;;;7.40;99.90;;;;;;4846229;29;20243;-61
2022/04/03 08:33:01;;;;;;;12.63;10.38;;;7.50;99.90;;;;;;4846791;29;20221;-61
2022/04/03 08:35:32;;;;;;;10.48;9.43;;;7.40;99.90;;;;;;4842754;29;20261;-61
2022/04/03 08:38:04;;;;;;;10.45;9.55;;;7.40;99.90;;;;;;4850753;29;20215;-61
2022/04/03 08:40:37;;;;;;;10.75;9.65;;;7.40;99.90;;;;;;4845355;29;20214;-61
2022/04/03 08:43:08;;;;;;;11.23;10.13;;;7.50;99.90;;;;;;4841177;29;20232;-61
2022/04/03 08:45:39;;;;;;;9.82;8.80;;;7.40;99.90;;;;;;4845358;29;20637;-61
2022/04/03 08:48:15;;;;;;;10.98;9.95;;;7.40;99.90;;;;;;4842922;29;20226;-61
2022/04/03 08:50:48;;;;;;;10.77;9.68;;;7.40;99.90;;;;;;4846979;29;20244;-61
2022/04/03 08:53:23;;;;;;;13.07;9.40;;;7.40;99.90;;;;;;4841420;29;20198;-61
2022/04/03 08:55:54;;;;;;;10.32;9.30;;;7.30;99.90;;;;;;4837141;29;20221;-61
2022/04/03 08:58:25;;;;;;;10.65;9.65;;;7.20;99.90;;;;;;4848062;29;20215;-61
2022/04/03 09:00:56;;;;;;;10.75;9.35;;;7.20;99.90;;;;;;4845500;29;20214;-61
2022/04/03 09:03:29;;;;;;;10.80;9.70;;;7.30;99.90;;;;;;4842613;29;20683;-62
2022/04/03 09:06:14;;;;;;;9.40;8.50;;;7.20;99.90;;;;;;4851570;29;20229;-62
2022/04/03 09:08:46;;;;;;;9.65;8.40;;;7.30;99.90;;;;;;4844228;29;20197;-61
2022/04/03 09:11:18;;;;;;;10.55;9.65;;;7.30;99.90;;;;;;4849781;29;20233;-61
2022/04/03 09:13:50;;;;;;;9.38;8.45;;;7.30;99.90;;;;;;4850601;29;20241;-61
2022/04/03 09:16:40;;;;;;;10.07;9.25;;;7.30;99.90;;;;;;4844393;29;20521;-61
2022/04/03 09:19:12;;;;;;;9.23;8.43;;;7.30;99.90;;;;;;4849687;29;20281;-60
2022/04/03 09:21:43;;;;;;;11.43;10.07;;;7.30;99.90;;;;;;4850693;29;20630;-61
2022/04/03 09:24:14;;;;;;;10.02;9.02;;;7.40;99.90;;;;;;4851737;29;20205;-61
2022/04/03 09:26:46;;;;;;;10.02;8.95;;;7.30;99.90;;;;;;4844797;29;20202;-60
2022/04/03 09:29:19;;;;;;;9.75;8.85;;;7.30;99.90;;;;;;4844249;29;20221;-61
2022/04/03 09:31:49;;;;;;;9.80;8.85;;;7.30;99.90;;;;;;4843760;29;20232;-61
2022/04/03 09:34:22;;;;;;;9.95;8.93;;;7.30;99.90;;;;;;4840664;29;20213;-61
2022/04/03 09:37:00;;;;;;;8.95;8.15;;;7.40;99.90;;;;;;4838319;29;20217;-61
2022/04/03 09:39:32;;;;;;;9.85;8.77;;;7.30;99.90;;;;;;4850427;29;20201;-61
2022/04/03 09:42:05;;;;;;;9.43;8.63;;;7.30;99.90;;;;;;4849844;29;20265;-61
2022/04/03 09:44:37;;;;;;;9.30;8.23;;;7.30;99.90;;;;;;4839620;29;20213;-61
2022/04/03 09:47:20;;;;;;;9.18;8.27;;;7.20;99.90;;;;;;4841984;29;20205;-61
2022/04/03 09:49:57;;;;;;;8.98;8.18;;;7.20;99.90;;;;;;4850233;29;20224;-61
2022/04/03 09:52:43;;;;;;;8.88;8.00;;;7.20;99.90;;;;;;4849928;29;20212;-61
2022/04/03 09:55:18;;;;;;;10.90;8.65;;;7.30;99.90;;;;;;4840456;29;20213;-61
2022/04/03 09:57:50;;;;;;;10.23;8.57;;;7.30;99.90;;;;;;4850166;29;20281;-61
2022/04/03 10:00:41;;;;;;;8.20;7.40;;;7.30;99.90;;;;;;4838085;29;20253;-60
2022/04/03 10:03:13;;;;;;;9.52;8.57;;;7.30;99.90;;;;;;4848194;29;20280;-61
2022/04/03 10:05:46;;;;;;;9.52;8.30;;;7.30;99.90;;;;;;4849674;29;20229;-61
2022/04/03 10:08:25;;;;;;;8.90;7.75;;;7.40;99.90;;;;;;4849148;29;20364;-61
2022/04/03 10:10:59;;;;;;;8.88;8.07;;;7.40;99.90;;;;;;4849642;29;20329;-62
2022/04/03 10:13:30;;;;;;;8.60;7.70;;;7.30;99.90;;;;;;4848744;29;20209;-62
2022/04/03 10:16:06;;;;;;;8.88;8.07;;;7.30;99.90;;;;;;4850673;29;20209;-61
2022/04/03 10:18:37;;;;;;;8.32;7.53;;;7.30;99.90;;;;;;4850035;29;20204;-61
2022/04/03 10:21:14;;;;;;;8.38;7.35;;;7.20;99.90;;;;;;4847794;29;20205;-61
2022/04/03 10:23:47;;;;;;;8.50;7.70;;;7.20;99.90;;;;;;4850471;29;20264;-61
2022/04/03 10:26:19;;;;;;;9.63;8.73;;;7.20;99.90;;;;;;4852937;29;20578;-61
2022/04/03 10:28:54;;;;;;;9.02;8.18;;;7.20;99.90;;;;;;4842182;29;20214;-61
2022/04/03 10:31:26;;;;;;;8.50;7.68;;;7.30;99.90;;;;;;4856063;29;20236;-62
2022/04/03 10:33:57;;;;;;;9.00;7.47;;;7.30;99.90;;;;;;4856569;29;20770;-61
2022/04/03 10:36:30;;;;;;;8.45;7.47;;;7.30;99.90;;;;;;4849718;29;20220;-61
2022/04/03 10:39:04;;;;;;;9.15;8.15;;;7.20;99.90;;;;;;4853245;29;20231;-61
2022/04/03 10:41:39;;;;;;;10.18;9.15;;;7.30;99.90;;;;;;4855072;29;20221;-61
2022/04/03 10:44:15;;;;;;;10.07;9.15;;;7.30;99.90;;;;;;4855091;29;20227;-61
2022/04/03 10:47:22;;;;;;;9.57;8.63;;;7.30;99.90;;;;;;4842820;29;20291;-62
2022/04/03 10:50:02;;;;;;;10.73;9.32;;;7.30;99.90;;;;;;4850250;29;20205;-62
2022/04/03 10:52:56;;;;;;;9.75;8.85;;;7.30;99.90;;;;;;4847335;29;20241;-61
2022/04/03 10:55:36;;;;;;;10.15;8.70;;;7.30;99.90;;;;;;4843459;29;20309;-61
2022/04/03 10:58:17;;;;;;;8.82;7.88;;;7.30;99.90;;;;;;4846806;29;20201;-61
2022/04/03 11:00:52;;;;;;;11.85;8.52;;;7.30;99.90;;;;;;4844079;29;20213;-61
2022/04/03 11:03:36;;;;;;;10.30;9.30;;;7.30;99.90;;;;;;4847533;29;20208;-61
2022/04/03 11:06:23;;;;;;;10.50;9.52;;;7.30;99.90;;;;;;4842255;29;20233;-61
2022/04/03 11:09:05;;;;;;;9.18;8.30;;;7.20;99.90;;;;;;4852994;29;20213;-61
2022/04/03 11:11:57;;;;;;;10.27;9.05;;;7.20;99.90;;;;;;4846777;29;20233;-61
2022/04/03 11:14:51;;;;;;;10.05;9.05;;;7.20;99.90;;;;;;4843277;29;20322;-61
2022/04/03 11:17:41;;;;;;;10.02;9.13;;;7.20;99.90;;;;;;4854204;29;20213;-62
2022/04/03 11:20:12;;;;;;;9.32;8.52;;;7.20;99.90;;;;;;4856805;29;20205;-62
2022/04/03 11:22:44;;;;;;;9.18;8.40;;;7.20;99.90;;;;;;4853977;29;20205;-61
2022/04/03 11:25:16;;;;;;;10.90;8.55;;;7.20;99.90;;;;;;4843964;29;20217;-61
2022/04/03 11:27:47;;;;;;;9.82;8.82;;;7.20;99.90;;;;;;4850841;29;20217;-62
2022/04/03 11:30:19;;;;;;;10.15;8.93;;;7.20;99.90;;;;;;4850970;29;20223;-61
2022/04/03 11:32:50;;;;;;;10.27;8.93;;;7.20;99.90;;;;;;4848665;29;20243;-61
2022/04/03 11:35:34;;;;;;;9.18;8.20;;;7.20;99.90;;;;;;4849058;29;20538;-61
2022/04/03 11:38:06;;;;;;;9.63;8.63;;;7.20;99.90;;;;;;4845687;29;20660;-61
2022/04/03 11:40:41;;;;;;;9.40;8.50;;;7.20;99.90;;;;;;4852971;29;20221;-61
2022/04/03 11:43:15;;;;;;;9.52;8.63;;;7.30;99.90;;;;;;4851455;29;20577;-61
2022/04/03 11:45:57;;;;;;;9.57;8.15;;;7.20;99.90;;;;;;4846046;29;20210;-61
2022/04/03 11:48:30;;;;;;;9.52;8.57;;;7.20;99.90;;;;;;4842974;29;20301;-61
2022/04/03 11:51:09;;;;;;;9.82;8.80;;;7.20;99.90;;;;;;4836222;29;20228;-61
2022/04/03 11:53:41;;;;;;;9.77;8.77;;;7.20;99.90;;;;;;4841704;29;20194;-61
2022/04/03 11:56:14;;;;;;;10.15;9.15;;;7.20;99.90;;;;;;4839927;29;20284;-61
2022/04/03 11:58:48;;;;;;;9.30;8.38;;;7.20;99.90;;;;;;4848404;29;20214;-62
2022/04/03 12:01:26;;;;;;;9.15;8.35;;;7.20;99.90;;;;;;4839745;29;20202;-62
2022/04/03 12:04:05;;;;;;;9.40;8.38;;;7.20;99.90;;;;;;4848867;29;20725;-61
2022/04/03 12:06:36;;;;;;;8.93;8.13;;;7.20;99.90;;;;;;4846910;29;20225;-61
2022/04/03 12:09:09;;;;;;;8.93;8.20;;;7.20;99.90;;;;;;4851803;29;20209;-61
2022/04/03 12:11:45;;;;;;;9.93;8.93;;;7.20;99.90;;;;;;4839235;29;20221;-61
2022/04/03 12:14:23;;;;;;;10.90;9.52;;;7.20;99.90;;;;;;4847435;29;20193;-61
2022/04/03 12:17:00;;;;;;;10.07;9.18;;;7.30;99.90;;;;;;4852181;29;20220;-61
2022/04/03 12:19:31;;;;;;;10.85;9.85;;;7.30;99.90;;;;;;4852297;29;20213;-62
2022/04/03 12:22:04;;;;;;;11.02;9.98;;;7.30;99.90;;;;;;4846331;29;20671;-61
2022/04/03 12:24:36;;;;;;;14.13;12.77;;;7.30;99.90;;;;;;4846411;29;20209;-61
2022/04/03 12:27:14;;;;;;;14.43;11.73;;;7.30;99.90;;;;;;4837135;29;20212;-61
2022/04/03 12:29:49;;;;;;;12.98;11.68;;;7.40;99.90;;;;;;4840248;29;20193;-61
2022/04/03 12:32:32;;;;;;;12.27;11.07;;;7.30;99.90;;;;;;4846548;29;20685;-61
2022/04/03 12:35:03;;;;;;;12.20;11.10;;;7.30;99.90;;;;;;4851448;29;20212;-61
2022/04/03 12:37:36;;;;;;;12.82;11.52;;;7.20;99.90;;;;;;4847459;29;20315;-61
2022/04/03 12:40:11;;;;;;;12.35;11.05;;;7.30;99.90;;;;;;4843632;29;20214;-61
2022/04/03 12:42:46;;;;;;;13.45;12.20;;;7.30;99.90;;;;;;4843019;29;20205;-61
2022/04/03 12:45:18;;;;;;;13.88;12.32;;;7.30;99.90;;;;;;4851058;29;20534;-62
2022/04/03 12:47:50;;;;;;;12.88;11.48;;;7.30;99.90;;;;;;4851946;29;20196;-61
2022/04/03 12:50:23;;;;;;;12.90;11.60;;;7.40;99.90;;;;;;4847656;29;20213;-61
2022/04/03 12:52:59;;;;;;;13.52;12.13;;;7.40;99.90;;;;;;4847431;29;20237;-60
2022/04/03 12:55:35;;;;;;;13.57;11.85;;;7.40;99.90;;;;;;4841512;29;20221;-61
2022/04/03 12:58:34;;;;;;;13.73;12.43;;;7.40;99.90;;;;;;4835043;29;20201;-61
2022/04/03 13:01:11;;;;;;;13.88;10.50;;;7.50;99.90;;;;;;4850468;29;20218;-61
2022/04/03 13:03:44;;;;;;;12.32;11.13;;;7.50;99.90;;;;;;4844762;29;20245;-61
2022/04/03 13:06:16;;;;;;;11.13;10.02;;;7.50;99.90;;;;;;4851388;29;20233;-62
2022/04/03 13:08:50;;;;;;;10.63;9.63;;;7.50;99.90;;;;;;4841844;29;20274;-61
2022/04/03 13:11:30;;;;;;;11.90;10.77;;;7.50;99.90;;;;;;4848403;29;20599;-62
2022/04/03 13:14:24;;;;;;;11.68;10.13;;;7.50;99.90;;;;;;4846982;29;20263;-61
2022/04/03 13:16:57;;;;;;;9.50;8.60;;;7.50;99.90;;;;;;4850450;29;20213;-62
2022/04/03 13:19:30;;;;;;;12.15;9.55;;;7.60;99.90;;;;;;4846704;29;20220;-62
2022/04/03 13:22:02;;;;;;;10.10;9.15;;;7.60;99.90;;;;;;4851032;29;20881;-61